Aérodrome :
LOGIN :

S'inscrire | Disclaimer

   EN    FR    IT 

 










Légende :    VFR   VFR Marginal   IFR   IFR Intensif   IFR Très Intensif
Visi : 
Plafond : 
>= 8 km
>= 3000ft
5 à 8 km
1000 à 3000 ft
1500m à 5 km
500 à 1000 ft
800 à 1500m
200 à 500 ft
< 800m
< 200 ft
Symboles :   Orages  Brouillard  Fortes neiges  Fortes précipitations  Vent > 20 kt
SIGMETs :   Divers  Orages  Givrage  Turbulence  Onde Orograph.  Cendres Volcan.






- Altitude de l'aérodrome : 485 ft
- Code IATA : QSA


LELL - Sabadell

DERNIER METAR :
  • 041000Z 14010KT 100V180 9999 BKN025 25/18 Q1015

METARs EXPIRÉS :
  • 040930Z 12010KT 080V150 9999 FEW015 SCT025 25/19 Q1015
  • 040900Z 14009KT 080V170 9999 FEW015TCU BKN025 26/19 Q1015
  • 040830Z 13009KT 080V170 9999 FEW015TCU BKN025 25/19 Q1014
  • 040800Z 13008KT 090V160 9999 SCT015 BKN025 24/19 Q1015
  • 040730Z 14008KT 070V200 9999 SCT015 BKN025 24/19 Q1014

TAF TAF LELL
Valide du 04 à 09h jusqu'au 05 à 09h UTC


040800Z 0409/0509 VRB04KT 9999 BKN020 TX27/0413Z TN18/0505Z
BECMG 0409/0411 16012KT
PROB30
TEMPO 0409/0416 RA SHRA FEW025TCU
BECMG 0419/0421 VRB04KT



MET'MAP, la Météo Aéronautique d'un coup d'oeil ! - Copyright ORBIFLY Décembre 2007 - Disclaimer

ORBIFLY MET'MAP TEAM :

Programmation & Développement : Alexandra Zaïnal
Sur une idée originale de : Baudouin d'Aumeries
Assistance à la programmation : Marc-Olivier Méhu
Soutien technique & logistique : Manuel Goepfert

Contact : metmap@orbifly.com




SOURCES & CREDITS :

   NOAA